Time;durP1;ratioP1;P1;durP2;ratioP2;P2;SDS_P1;SDS_P2;PMS_P1;PMS_P2;Temp;Humidity;BMP_temperature;BMP_pressure;BME280_temperature;BME280_humidity;BME280_pressure;Samples;Min_cycle;Max_cycle;Signal;HPM_P1;HPM_P2
2023/07/15 02:02:11;;;;;;;8.70;2.75;;;;;;;;;;4412046;28;20189;-77
2023/07/15 02:04:37;;;;;;;3.47;2.70;;;;;;;;;;4310746;33;20481;-78
2023/07/15 02:07:04;;;;;;;6.78;2.15;;;;;;;;;;4310879;33;20048;-77
2023/07/15 02:09:32;;;;;;;5.10;2.25;;;;;;;;;;4311437;33;20044;-77
2023/07/15 02:11:59;;;;;;;4.30;2.33;;;;;;;;;;4312288;33;20037;-77
2023/07/15 02:14:25;;;;;;;4.90;2.65;;;;;;;;;;4299411;33;20420;-78
2023/07/15 02:16:51;;;;;;;8.15;2.30;;;;;;;;;;4299912;33;20036;-77
2023/07/15 02:19:17;;;;;;;2.97;2.22;;;;;;;;;;4300270;33;20076;-77
2023/07/15 02:21:43;;;;;;;10.93;2.10;;;;;;;;;;4299709;33;20067;-78
2023/07/15 02:24:10;;;;;;;3.87;2.40;;;;;;;;;;4268725;33;20399;-77
2023/07/15 02:26:36;;;;;;;4.53;3.22;;;;;;;;;;4277140;33;20049;-78
2023/07/15 02:29:03;;;;;;;3.83;2.40;;;;;;;;;;4254965;33;20046;-78
2023/07/15 02:31:29;;;;;;;10.57;2.22;;;;;;;;;;4252917;33;20354;-77
2023/07/15 02:33:55;;;;;;;5.05;3.12;;;;;;;;;;4251506;33;20046;-78
2023/07/15 02:36:22;;;;;;;6.18;2.22;;;;;;;;;;4255564;33;20403;-77
2023/07/15 02:38:48;;;;;;;6.15;2.50;;;;;;;;;;4257358;33;20390;-77
2023/07/15 02:41:14;;;;;;;10.70;3.12;;;;;;;;;;4255480;33;20080;-78
2023/07/15 02:43:42;;;;;;;2.25;1.92;;;;;;;;;;4259082;33;20054;-77
2023/07/15 02:46:08;;;;;;;4.47;2.60;;;;;;;;;;4253404;33;20081;-77
2023/07/15 02:48:34;;;;;;;3.95;2.47;;;;;;;;;;4239767;33;20054;-77
2023/07/15 02:51:00;;;;;;;6.57;2.90;;;;;;;;;;4240366;33;20061;-78
2023/07/15 02:53:26;;;;;;;3.95;2.03;;;;;;;;;;4240005;33;20095;-79
2023/07/15 02:55:53;;;;;;;7.65;2.53;;;;;;;;;;4249236;33;20680;-79
2023/07/15 02:58:19;;;;;;;4.62;3.35;;;;;;;;;;4248258;33;20076;-79
2023/07/15 03:00:46;;;;;;;4.32;2.72;;;;;;;;;;4249960;33;21035;-79
2023/07/15 03:03:12;;;;;;;6.05;2.70;;;;;;;;;;4249184;33;20054;-80
2023/07/15 03:05:44;;;;;;;6.18;3.40;;;;;;;;;;4252549;33;20038;-79
2023/07/15 03:08:10;;;;;;;5.83;3.50;;;;;;;;;;4277415;33;20064;-80
2023/07/15 03:10:37;;;;;;;7.43;2.92;;;;;;;;;;4277124;33;20050;-79
2023/07/15 03:13:04;;;;;;;4.75;2.80;;;;;;;;;;4269453;33;20431;-79
2023/07/15 03:15:30;;;;;;;5.70;2.72;;;;;;;;;;4277206;33;20045;-79
2023/07/15 03:17:56;;;;;;;8.82;3.10;;;;;;;;;;4277575;33;20057;-79
2023/07/15 03:20:23;;;;;;;3.58;2.70;;;;;;;;;;4276372;33;20048;-80
2023/07/15 03:22:50;;;;;;;5.85;2.90;;;;;;;;;;4277836;33;20067;-79
2023/07/15 03:25:16;;;;;;;3.45;2.55;;;;;;;;;;4265605;33;20462;-78
2023/07/15 03:27:43;;;;;;;13.20;2.87;;;;;;;;;;4277169;33;20038;-78
2023/07/15 03:30:09;;;;;;;3.05;2.35;;;;;;;;;;4248360;33;20077;-78
2023/07/15 03:32:36;;;;;;;8.27;1.83;;;;;;;;;;4247103;33;20076;-79
2023/07/15 03:35:04;;;;;;;5.20;2.37;;;;;;;;;;4248555;33;20031;-78
2023/07/15 03:37:30;;;;;;;7.55;2.25;;;;;;;;;;4249275;33;20839;-77
2023/07/15 03:39:57;;;;;;;4.97;3.00;;;;;;;;;;4248898;33;20048;-79
2023/07/15 03:42:24;;;;;;;3.15;2.75;;;;;;;;;;4248288;33;20353;-77
2023/07/15 03:44:50;;;;;;;4.25;2.47;;;;;;;;;;4235183;33;20064;-79
2023/07/15 03:47:16;;;;;;;5.28;2.80;;;;;;;;;;4237487;33;20265;-78
2023/07/15 03:49:45;;;;;;;3.60;2.60;;;;;;;;;;4237542;33;20087;-78
2023/07/15 03:52:11;;;;;;;4.95;3.00;;;;;;;;;;4237181;33;20076;-78
2023/07/15 03:54:37;;;;;;;7.10;3.33;;;;;;;;;;4236583;33;20046;-78
2023/07/15 03:57:04;;;;;;;8.90;2.10;;;;;;;;;;4234645;33;20042;-79
2023/07/15 03:59:31;;;;;;;5.47;2.20;;;;;;;;;;4237643;33;20076;-78
2023/07/15 04:01:57;;;;;;;11.93;3.17;;;;;;;;;;4265257;33;20424;-78
2023/07/15 04:04:23;;;;;;;3.70;2.12;;;;;;;;;;4297674;33;20459;-79
2023/07/15 04:06:50;;;;;;;2.95;2.20;;;;;;;;;;4274005;33;20061;-78
2023/07/15 04:09:16;;;;;;;4.72;2.60;;;;;;;;;;4279073;33;20041;-79
2023/07/15 04:11:43;;;;;;;6.65;2.15;;;;;;;;;;4280605;33;20053;-78
2023/07/15 04:14:09;;;;;;;4.62;1.95;;;;;;;;;;4280409;33;20067;-78
2023/07/15 04:16:35;;;;;;;2.80;2.12;;;;;;;;;;4236956;33;20038;-78
2023/07/15 04:19:01;;;;;;;5.22;2.00;;;;;;;;;;4238034;33;20076;-78
2023/07/15 04:21:28;;;;;;;2.35;2.15;;;;;;;;;;4234504;33;20108;-80
2023/07/15 04:23:54;;;;;;;11.05;2.20;;;;;;;;;;4222508;34;20055;-78
2023/07/15 04:26:22;;;;;;;2.45;1.90;;;;;;;;;;4209923;34;20077;-79
2023/07/15 04:28:49;;;;;;;3.72;2.40;;;;;;;;;;4210242;34;20583;-78
2023/07/15 04:31:15;;;;;;;2.95;1.67;;;;;;;;;;4208033;34;20065;-78
2023/07/15 04:33:43;;;;;;;4.62;2.05;;;;;;;;;;4191953;34;20069;-77
2023/07/15 04:36:09;;;;;;;3.12;2.28;;;;;;;;;;4195996;34;20055;-78
2023/07/15 04:38:35;;;;;;;6.12;2.42;;;;;;;;;;4206726;34;20066;-77
2023/07/15 04:41:02;;;;;;;4.12;2.50;;;;;;;;;;4209068;34;20094;-77
2023/07/15 04:43:27;;;;;;;8.50;3.62;;;;;;;;;;4209628;34;20482;-78
2023/07/15 04:45:54;;;;;;;3.45;1.87;;;;;;;;;;4206233;34;20055;-79
2023/07/15 04:48:20;;;;;;;6.80;2.40;;;;;;;;;;4208834;34;20917;-79
2023/07/15 04:50:47;;;;;;;6.82;2.47;;;;;;;;;;4208907;34;20050;-78
2023/07/15 04:53:12;;;;;;;6.78;2.67;;;;;;;;;;4211516;33;20075;-78
2023/07/15 04:55:40;;;;;;;3.60;2.17;;;;;;;;;;4246802;33;20070;-78
2023/07/15 04:58:06;;;;;;;2.53;2.30;;;;;;;;;;4248797;33;20039;-77
2023/07/15 05:00:39;;;;;;;4.05;2.20;;;;;;;;;;4246599;33;20046;-78
2023/07/15 05:03:06;;;;;;;4.90;2.33;;;;;;;;;;4258902;33;20632;-79
2023/07/15 05:05:32;;;;;;;5.72;2.60;;;;;;;;;;4264309;33;20404;-79
2023/07/15 05:08:12;;;;;;;3.12;2.17;;;;;;;;;;4263479;33;20089;-79
2023/07/15 05:10:48;;;;;;;5.47;1.98;;;;;;;;;;4273904;33;20459;-80
2023/07/15 05:13:15;;;;;;;8.13;2.30;;;;;;;;;;4296657;33;20063;-79
2023/07/15 05:15:42;;;;;;;3.72;2.10;;;;;;;;;;4295887;33;20082;-80
2023/07/15 05:18:08;;;;;;;11.50;2.25;;;;;;;;;;4293944;33;20073;-80
2023/07/15 05:20:34;;;;;;;15.50;2.37;;;;;;;;;;4295993;33;20057;-79
2023/07/15 05:23:02;;;;;;;8.10;2.12;;;;;;;;;;4281910;33;20065;-80
2023/07/15 05:25:31;;;;;;;3.37;2.40;;;;;;;;;;4296602;33;20426;-80
2023/07/15 05:27:57;;;;;;;4.10;3.00;;;;;;;;;;4259488;33;20081;-80
2023/07/15 05:30:24;;;;;;;5.22;1.98;;;;;;;;;;4233579;33;20062;-80
2023/07/15 05:32:49;;;;;;;5.03;2.70;;;;;;;;;;4221134;34;20051;-78
2023/07/15 05:35:23;;;;;;;6.18;2.62;;;;;;;;;;4220938;34;20474;-79
2023/07/15 05:37:49;;;;;;;2.42;2.22;;;;;;;;;;4220346;34;20035;-80
2023/07/15 05:40:15;;;;;;;5.03;2.15;;;;;;;;;;4219771;34;20482;-80
2023/07/15 05:42:42;;;;;;;2.45;2.25;;;;;;;;;;4198090;34;20039;-80
2023/07/15 05:45:09;;;;;;;5.10;2.28;;;;;;;;;;4201616;34;20219;-79
2023/07/15 05:47:38;;;;;;;3.17;2.55;;;;;;;;;;4199248;34;20070;-79
2023/07/15 05:50:06;;;;;;;2.58;2.33;;;;;;;;;;4200387;34;20055;-80
2023/07/15 05:52:34;;;;;;;7.45;2.42;;;;;;;;;;4190457;34;20055;-79
2023/07/15 05:55:01;;;;;;;5.85;3.03;;;;;;;;;;4189174;34;20377;-78
2023/07/15 05:57:27;;;;;;;12.55;3.22;;;;;;;;;;4180786;34;20077;-77
2023/07/15 05:59:53;;;;;;;10.32;3.03;;;;;;;;;;4195442;34;20700;-79
2023/07/15 06:02:19;;;;;;;7.32;2.58;;;;;;;;;;4205150;34;20090;-81
2023/07/15 06:04:49;;;;;;;6.37;2.80;;;;;;;;;;4207185;34;21007;-84
2023/07/15 06:07:17;;;;;;;3.65;2.85;;;;;;;;;;4208380;34;20043;-84
2023/07/15 06:09:43;;;;;;;5.53;3.78;;;;;;;;;;4201699;34;20043;-84
2023/07/15 06:12:09;;;;;;;13.07;3.20;;;;;;;;;;4222506;34;20069;-81
2023/07/15 06:14:35;;;;;;;8.57;3.60;;;;;;;;;;4245745;33;20078;-82
2023/07/15 06:17:02;;;;;;;6.53;3.00;;;;;;;;;;4249427;33;20122;-82
2023/07/15 06:19:28;;;;;;;10.10;3.10;;;;;;;;;;4249777;33;20076;-83
2023/07/15 06:21:54;;;;;;;11.35;3.50;;;;;;;;;;4249789;33;20063;-81
2023/07/15 06:24:20;;;;;;;9.77;2.87;;;;;;;;;;4238800;33;20053;-84
2023/07/15 06:26:46;;;;;;;4.72;3.10;;;;;;;;;;4235648;33;20593;-79
2023/07/15 06:29:13;;;;;;;10.57;6.68;;;;;;;;;;4250311;33;20475;-85
2023/07/15 06:31:38;;;;;;;7.15;2.83;;;;;;;;;;4271532;33;20097;-82
2023/07/15 06:34:05;;;;;;;8.18;3.35;;;;;;;;;;4274285;33;20045;-80
2023/07/15 06:36:31;;;;;;;3.72;3.35;;;;;;;;;;4259948;33;20491;-82
2023/07/15 06:38:57;;;;;;;3.90;2.72;;;;;;;;;;4265678;33;20569;-82
2023/07/15 06:41:24;;;;;;;3.80;2.87;;;;;;;;;;4250349;33;20072;-80
2023/07/15 06:43:51;;;;;;;10.38;3.42;;;;;;;;;;4249179;33;20130;-83
2023/07/15 06:46:16;;;;;;;8.10;2.92;;;;;;;;;;4265589;33;20891;-79
2023/07/15 06:48:44;;;;;;;9.52;3.28;;;;;;;;;;4265070;33;20042;-82
2023/07/15 06:51:14;;;;;;;7.20;3.35;;;;;;;;;;4265509;33;20053;-83
2023/07/15 06:53:46;;;;;;;5.47;3.25;;;;;;;;;;4266311;33;20049;-84
2023/07/15 06:56:13;;;;;;;9.15;3.12;;;;;;;;;;4266761;33;20412;-89
2023/07/15 06:58:39;;;;;;;7.93;2.83;;;;;;;;;;4266563;33;20375;-86
2023/07/15 07:01:05;;;;;;;8.63;3.05;;;;;;;;;;4237564;33;20050;-84
2023/07/15 07:03:35;;;;;;;4.18;2.90;;;;;;;;;;4236347;33;20058;-84
2023/07/15 07:06:01;;;;;;;9.50;3.37;;;;;;;;;;4232738;33;20039;-78
2023/07/15 07:08:28;;;;;;;4.87;2.75;;;;;;;;;;4220758;34;20104;-82
2023/07/15 07:10:54;;;;;;;9.15;3.03;;;;;;;;;;4219857;34;20460;-84
2023/07/15 07:13:20;;;;;;;3.50;2.85;;;;;;;;;;4218908;34;20865;-82
2023/07/15 07:15:47;;;;;;;9.88;4.30;;;;;;;;;;4227420;33;20042;-83
2023/07/15 07:18:13;;;;;;;8.77;2.95;;;;;;;;;;4249125;33;20200;-83
2023/07/15 07:20:40;;;;;;;6.18;3.00;;;;;;;;;;4251329;33;20409;-81
2023/07/15 07:23:06;;;;;;;4.97;2.72;;;;;;;;;;4250811;33;20525;-83
2023/07/15 07:25:33;;;;;;;5.72;2.90;;;;;;;;;;4253611;33;20136;-86
2023/07/15 07:27:59;;;;;;;7.30;3.12;;;;;;;;;;4249762;33;20064;-85
2023/07/15 07:30:27;;;;;;;3.95;3.12;;;;;;;;;;4255247;33;20035;-86
2023/07/15 07:32:53;;;;;;;7.03;3.22;;;;;;;;;;4250296;33;20112;-80
2023/07/15 07:35:19;;;;;;;5.32;3.70;;;;;;;;;;4252199;33;20227;-82
2023/07/15 07:37:46;;;;;;;8.18;3.10;;;;;;;;;;4234600;33;20062;-80
2023/07/15 07:40:12;;;;;;;11.30;3.80;;;;;;;;;;4248012;33;20064;-79
2023/07/15 07:42:38;;;;;;;3.42;2.90;;;;;;;;;;4252415;33;20092;-82
2023/07/15 07:45:14;;;;;;;7.32;3.70;;;;;;;;;;4250294;33;20068;-84
2023/07/15 07:47:42;;;;;;;3.70;2.70;;;;;;;;;;4241613;33;20030;-80
2023/07/15 07:50:09;;;;;;;3.53;2.53;;;;;;;;;;4239772;33;20076;-82
2023/07/15 07:52:35;;;;;;;10.82;3.15;;;;;;;;;;4235352;33;20050;-80
2023/07/15 07:55:01;;;;;;;5.25;2.30;;;;;;;;;;4231132;33;20503;-81
2023/07/15 07:57:28;;;;;;;29.95;11.68;;;;;;;;;;4233311;33;20106;-80
2023/07/15 07:59:54;;;;;;;3.15;2.90;;;;;;;;;;4235675;33;20639;-80
2023/07/15 08:02:20;;;;;;;6.53;3.30;;;;;;;;;;4186354;34;20080;-80
2023/07/15 08:04:48;;;;;;;6.10;2.28;;;;;;;;;;4194203;34;20103;-86
2023/07/15 08:07:15;;;;;;;6.72;2.60;;;;;;;;;;4192588;34;20052;-84
2023/07/15 08:09:40;;;;;;;5.97;2.40;;;;;;;;;;4193579;34;20051;-85
2023/07/15 08:12:10;;;;;;;4.07;2.60;;;;;;;;;;4190008;34;20078;-86
2023/07/15 08:14:36;;;;;;;4.05;2.53;;;;;;;;;;4194523;34;20476;-86
2023/07/15 08:17:02;;;;;;;11.02;2.65;;;;;;;;;;4194924;34;20077;-88
2023/07/15 08:19:34;;;;;;;4.85;2.50;;;;;;;;;;4204197;34;20047;-86
2023/07/15 08:22:03;;;;;;;2.47;2.30;;;;;;;;;;4205997;34;20133;-86
2023/07/15 08:24:30;;;;;;;4.20;2.45;;;;;;;;;;4218072;34;20053;-85
2023/07/15 08:26:56;;;;;;;9.48;2.72;;;;;;;;;;4221395;34;20389;-86
2023/07/15 08:29:22;;;;;;;7.70;2.05;;;;;;;;;;4220874;33;20047;-81
2023/07/15 08:31:55;;;;;;;6.78;2.47;;;;;;;;;;4221154;34;20272;-81
2023/07/15 08:34:21;;;;;;;6.70;2.17;;;;;;;;;;4221366;34;20450;-80
2023/07/15 08:36:48;;;;;;;4.00;2.72;;;;;;;;;;4221613;34;20364;-81
2023/07/15 08:39:14;;;;;;;7.43;2.40;;;;;;;;;;4199547;33;20438;-81
2023/07/15 08:41:41;;;;;;;3.08;2.35;;;;;;;;;;4228573;33;20054;-80
2023/07/15 08:44:14;;;;;;;2.90;2.08;;;;;;;;;;4233775;33;20764;-80
2023/07/15 08:46:41;;;;;;;2.70;2.25;;;;;;;;;;4228344;33;20454;-80
2023/07/15 08:49:07;;;;;;;5.57;2.12;;;;;;;;;;4229000;33;20057;-80
2023/07/15 08:51:34;;;;;;;6.85;2.80;;;;;;;;;;4212571;34;20054;-81
2023/07/15 08:54:01;;;;;;;4.60;2.10;;;;;;;;;;4229129;33;20463;-80
2023/07/15 08:56:28;;;;;;;4.82;2.40;;;;;;;;;;4229749;33;20072;-80
2023/07/15 08:58:55;;;;;;;3.90;2.30;;;;;;;;;;4230972;33;20031;-79
2023/07/15 09:01:22;;;;;;;7.30;1.80;;;;;;;;;;4227256;33;20060;-79
2023/07/15 09:03:48;;;;;;;9.60;1.90;;;;;;;;;;4217945;34;20106;-80
2023/07/15 09:06:17;;;;;;;2.83;2.22;;;;;;;;;;4222594;34;20093;-79
2023/07/15 09:08:49;;;;;;;3.15;2.22;;;;;;;;;;4222703;34;20043;-79
2023/07/15 09:11:15;;;;;;;3.55;2.00;;;;;;;;;;4220868;34;20508;-81
2023/07/15 09:13:42;;;;;;;5.87;1.92;;;;;;;;;;4223220;34;20051;-81
2023/07/15 09:16:09;;;;;;;11.63;2.12;;;;;;;;;;4222240;34;20082;-81
2023/07/15 09:18:40;;;;;;;3.35;2.05;;;;;;;;;;4207564;34;20048;-82
2023/07/15 09:21:07;;;;;;;1.87;1.77;;;;;;;;;;4208328;34;20051;-80
2023/07/15 09:23:36;;;;;;;4.07;1.77;;;;;;;;;;4229014;33;20066;-80
2023/07/15 09:26:04;;;;;;;3.03;1.85;;;;;;;;;;4235320;33;20054;-83
2023/07/15 09:28:30;;;;;;;5.07;1.55;;;;;;;;;;4235156;33;20689;-82
2023/07/15 09:30:57;;;;;;;2.37;2.15;;;;;;;;;;4261337;33;20068;-82
2023/07/15 09:33:29;;;;;;;1.77;1.70;;;;;;;;;;4263085;33;20055;-82
2023/07/15 09:35:55;;;;;;;3.10;1.85;;;;;;;;;;4262017;33;20535;-82
2023/07/15 09:38:22;;;;;;;2.75;2.22;;;;;;;;;;4264876;33;20124;-81
2023/07/15 09:40:49;;;;;;;5.90;2.08;;;;;;;;;;4267891;33;20037;-81
2023/07/15 09:43:15;;;;;;;4.47;1.73;;;;;;;;;;4285711;33;20066;-82
2023/07/15 09:45:41;;;;;;;4.20;2.03;;;;;;;;;;4264742;33;20464;-81
2023/07/15 09:48:08;;;;;;;1.73;1.62;;;;;;;;;;4264008;33;20112;-82
2023/07/15 09:50:36;;;;;;;9.18;1.42;;;;;;;;;;4264961;33;20218;-81
2023/07/15 09:53:03;;;;;;;8.85;1.98;;;;;;;;;;4264368;33;20050;-82
2023/07/15 09:55:30;;;;;;;1.60;1.50;;;;;;;;;;4266515;33;20507;-81
2023/07/15 09:58:00;;;;;;;6.43;2.83;;;;;;;;;;4249385;33;20428;-80
2023/07/15 10:00:28;;;;;;;5.65;3.95;;;;;;;;;;4248401;33;20970;-81
2023/07/15 10:02:56;;;;;;;2.35;2.00;;;;;;;;;;4213544;34;20484;-81
2023/07/15 10:07:57;;;;;;;1.98;1.87;;;;;;;;;;4217700;34;20035;-79
2023/07/15 10:10:23;;;;;;;3.90;1.90;;;;;;;;;;4213522;34;20131;-80
2023/07/15 10:12:56;;;;;;;2.33;1.95;;;;;;;;;;4214027;34;20047;-80
2023/07/15 10:15:23;;;;;;;8.02;2.30;;;;;;;;;;4216663;34;20518;-80
2023/07/15 10:17:49;;;;;;;8.43;2.78;;;;;;;;;;4232214;33;20042;-80
2023/07/15 10:20:19;;;;;;;6.35;2.33;;;;;;;;;;4227661;34;20068;-82
2023/07/15 10:22:48;;;;;;;7.95;2.20;;;;;;;;;;4236299;34;20097;-81
2023/07/15 10:25:15;;;;;;;10.43;1.80;;;;;;;;;;4238320;33;20110;-81
2023/07/15 10:27:41;;;;;;;2.85;1.70;;;;;;;;;;4236282;33;20102;-82
2023/07/15 10:30:18;;;;;;;2.15;1.95;;;;;;;;;;4270806;33;20117;-80
2023/07/15 10:33:03;;;;;;;3.10;1.85;;;;;;;;;;4274322;33;20102;-80
2023/07/15 10:35:33;;;;;;;2.78;1.65;;;;;;;;;;4282772;33;20067;-80
2023/07/15 10:38:18;;;;;;;3.53;2.20;;;;;;;;;;4276629;33;20099;-81
2023/07/15 10:40:59;;;;;;;3.30;1.90;;;;;;;;;;4272928;33;20182;-80
2023/07/15 10:43:34;;;;;;;2.42;2.20;;;;;;;;;;4252701;33;20038;-79
2023/07/15 10:46:05;;;;;;;6.70;2.17;;;;;;;;;;4259980;33;20391;-80
2023/07/15 10:48:31;;;;;;;3.85;1.70;;;;;;;;;;4256490;33;20030;-81
2023/07/15 10:51:05;;;;;;;2.97;2.67;;;;;;;;;;4259536;33;20311;-80
2023/07/15 10:53:32;;;;;;;4.28;2.30;;;;;;;;;;4240126;33;20056;-80
2023/07/15 10:56:00;;;;;;;2.08;1.98;;;;;;;;;;4242590;33;20518;-79
2023/07/15 10:58:26;;;;;;;2.35;1.75;;;;;;;;;;4241429;33;20097;-78
2023/07/15 11:01:01;;;;;;;1.95;1.65;;;;;;;;;;4385621;28;20079;-79
2023/07/15 11:03:28;;;;;;;2.17;1.87;;;;;;;;;;4180952;34;20110;-80
2023/07/15 11:05:56;;;;;;;2.17;1.73;;;;;;;;;;4186305;34;20226;-79
2023/07/15 11:08:22;;;;;;;4.80;1.98;;;;;;;;;;4184130;34;20040;-81
2023/07/15 11:10:49;;;;;;;2.10;1.80;;;;;;;;;;4186968;34;20101;-80
2023/07/15 11:13:16;;;;;;;5.65;2.58;;;;;;;;;;4184221;34;20069;-79
2023/07/15 11:15:45;;;;;;;9.40;2.60;;;;;;;;;;4197039;34;20051;-80
2023/07/15 11:18:16;;;;;;;6.50;2.40;;;;;;;;;;4202967;34;20047;-79
2023/07/15 11:20:44;;;;;;;5.45;2.05;;;;;;;;;;4201473;34;20526;-79
2023/07/15 11:23:10;;;;;;;4.68;2.10;;;;;;;;;;4179686;34;20470;-80
2023/07/15 11:25:37;;;;;;;2.47;2.28;;;;;;;;;;4205905;34;20051;-81
2023/07/15 11:28:04;;;;;;;2.80;2.58;;;;;;;;;;4212318;34;20078;-81
2023/07/15 11:30:34;;;;;;;6.55;2.33;;;;;;;;;;4214735;34;20075;-79
2023/07/15 11:33:00;;;;;;;4.55;2.10;;;;;;;;;;4214387;34;20051;-80
2023/07/15 11:35:29;;;;;;;2.03;1.92;;;;;;;;;;4196877;34;20138;-80
2023/07/15 11:37:55;;;;;;;4.45;3.47;;;;;;;;;;4200875;34;20566;-80
2023/07/15 11:40:22;;;;;;;13.77;2.30;;;;;;;;;;4172481;34;20043;-79
2023/07/15 11:42:48;;;;;;;2.70;2.22;;;;;;;;;;4178265;34;20124;-79
2023/07/15 11:45:14;;;;;;;9.48;3.03;;;;;;;;;;4179556;34;20064;-80
2023/07/15 11:47:41;;;;;;;3.75;2.37;;;;;;;;;;4175360;34;20056;-80
2023/07/15 11:50:11;;;;;;;3.00;1.95;;;;;;;;;;4182285;34;20487;-80
2023/07/15 11:52:41;;;;;;;6.37;2.47;;;;;;;;;;4180368;34;20175;-80
2023/07/15 11:55:08;;;;;;;3.55;2.05;;;;;;;;;;4166128;34;20083;-79
2023/07/15 11:57:45;;;;;;;2.00;1.90;;;;;;;;;;4170783;34;20024;-80
2023/07/15 12:00:26;;;;;;;5.85;2.42;;;;;;;;;;4169050;34;20064;-79
2023/07/15 12:02:52;;;;;;;2.05;1.95;;;;;;;;;;4185984;34;20048;-81
2023/07/15 12:05:19;;;;;;;6.18;2.20;;;;;;;;;;4181472;34;20055;-80
2023/07/15 12:07:49;;;;;;;4.15;2.22;;;;;;;;;;4195647;34;20120;-79
2023/07/15 12:10:16;;;;;;;3.12;2.58;;;;;;;;;;4195590;34;20397;-82
2023/07/15 12:12:45;;;;;;;2.50;2.22;;;;;;;;;;4213099;34;20405;-82
2023/07/15 12:15:15;;;;;;;5.22;1.98;;;;;;;;;;4223899;34;20469;-83
2023/07/15 12:17:42;;;;;;;2.40;2.28;;;;;;;;;;4222816;34;20047;-84
2023/07/15 12:20:09;;;;;;;4.93;2.22;;;;;;;;;;4223236;34;20097;-81
2023/07/15 12:22:35;;;;;;;4.75;2.30;;;;;;;;;;4224212;33;20133;-82
2023/07/15 12:25:02;;;;;;;3.83;2.03;;;;;;;;;;4226971;33;20124;-80
2023/07/15 12:27:30;;;;;;;3.17;2.20;;;;;;;;;;4234892;33;20604;-80
2023/07/15 12:29:57;;;;;;;2.65;2.45;;;;;;;;;;4238077;33;20802;-81
2023/07/15 12:32:24;;;;;;;2.83;2.37;;;;;;;;;;4250355;33;20062;-81
2023/07/15 12:34:56;;;;;;;2.33;2.22;;;;;;;;;;4266854;33;20377;-82
2023/07/15 12:37:23;;;;;;;2.72;2.53;;;;;;;;;;4271006;33;20069;-81
2023/07/15 12:39:49;;;;;;;5.37;3.20;;;;;;;;;;4265536;33;20399;-78
2023/07/15 12:42:15;;;;;;;4.15;2.00;;;;;;;;;;4270715;33;20059;-81
2023/07/15 12:44:41;;;;;;;8.75;2.28;;;;;;;;;;4271185;33;20042;-80
2023/07/15 12:47:08;;;;;;;6.07;2.85;;;;;;;;;;4248455;33;20101;-80
2023/07/15 12:49:34;;;;;;;2.58;2.30;;;;;;;;;;4251315;33;20102;-80
2023/07/15 12:52:00;;;;;;;5.18;1.80;;;;;;;;;;4250040;33;20046;-80
2023/07/15 12:54:26;;;;;;;7.07;2.10;;;;;;;;;;4242981;33;20124;-81
2023/07/15 12:56:52;;;;;;;2.40;2.05;;;;;;;;;;4237245;33;20050;-83
2023/07/15 12:59:18;;;;;;;6.18;3.75;;;;;;;;;;4235564;33;20097;-81
2023/07/15 13:01:45;;;;;;;2.60;2.35;;;;;;;;;;4242454;33;20047;-80
2023/07/15 13:04:11;;;;;;;2.65;2.45;;;;;;;;;;4207551;34;20049;-81
2023/07/15 13:06:37;;;;;;;2.78;2.60;;;;;;;;;;4208352;34;20211;-82
2023/07/15 13:09:03;;;;;;;2.75;2.35;;;;;;;;;;4207679;34;20072;-80
2023/07/15 13:11:30;;;;;;;3.20;2.65;;;;;;;;;;4208708;34;20997;-80
2023/07/15 13:13:56;;;;;;;4.07;2.62;;;;;;;;;;4208423;34;20055;-80
2023/07/15 13:16:22;;;;;;;1.92;1.70;;;;;;;;;;4209702;34;20666;-81
2023/07/15 13:18:48;;;;;;;3.45;2.58;;;;;;;;;;4218261;33;20221;-79
2023/07/15 13:21:14;;;;;;;2.95;2.67;;;;;;;;;;4221287;33;20042;-79
2023/07/15 13:23:41;;;;;;;7.55;2.30;;;;;;;;;;4221719;33;20051;-80
2023/07/15 13:26:07;;;;;;;3.15;2.50;;;;;;;;;;4221955;33;20378;-80
2023/07/15 13:28:33;;;;;;;2.15;1.95;;;;;;;;;;4227976;33;20085;-82
2023/07/15 13:31:00;;;;;;;1.90;1.80;;;;;;;;;;4226536;33;20054;-81
2023/07/15 13:33:26;;;;;;;2.58;2.28;;;;;;;;;;4210981;33;20067;-81
2023/07/15 13:35:54;;;;;;;3.25;2.30;;;;;;;;;;4246243;33;20067;-80
2023/07/15 13:38:20;;;;;;;3.28;2.97;;;;;;;;;;4252962;33;20596;-78
2023/07/15 13:40:46;;;;;;;3.37;2.87;;;;;;;;;;4235885;33;20073;-81
2023/07/15 13:43:12;;;;;;;3.20;2.92;;;;;;;;;;4242108;33;20385;-79
2023/07/15 13:45:39;;;;;;;2.28;2.17;;;;;;;;;;4248814;33;20088;-82
2023/07/15 13:48:05;;;;;;;8.98;2.50;;;;;;;;;;4248026;33;20109;-80
2023/07/15 13:50:32;;;;;;;6.53;2.10;;;;;;;;;;4251086;33;20561;-80
2023/07/15 13:52:58;;;;;;;3.05;2.50;;;;;;;;;;4249598;33;20454;-80
2023/07/15 13:55:25;;;;;;;4.15;2.62;;;;;;;;;;4249490;33;20047;-80
2023/07/15 13:57:51;;;;;;;4.93;2.25;;;;;;;;;;4237024;33;20068;-80
2023/07/15 14:00:18;;;;;;;7.68;2.58;;;;;;;;;;4248347;33;20418;-78
2023/07/15 14:02:44;;;;;;;9.30;1.90;;;;;;;;;;4249054;33;20101;-78
2023/07/15 14:05:10;;;;;;;2.45;2.25;;;;;;;;;;4249089;33;20075;-79
2023/07/15 14:07:36;;;;;;;8.85;2.95;;;;;;;;;;4247024;33;20073;-79
2023/07/15 14:10:03;;;;;;;4.45;2.12;;;;;;;;;;4245348;33;20452;-80
2023/07/15 14:12:30;;;;;;;4.95;2.65;;;;;;;;;;4250245;33;20342;-79
2023/07/15 14:14:56;;;;;;;5.72;3.05;;;;;;;;;;4252307;33;20095;-78
2023/07/15 14:17:22;;;;;;;3.67;2.33;;;;;;;;;;4252423;33;20520;-78
2023/07/15 14:19:48;;;;;;;7.95;2.60;;;;;;;;;;4220406;34;20112;-78
2023/07/15 14:22:14;;;;;;;3.10;1.95;;;;;;;;;;4220512;34;20043;-79
2023/07/15 14:24:40;;;;;;;6.07;2.10;;;;;;;;;;4220209;34;20433;-79
2023/07/15 14:27:07;;;;;;;4.65;3.05;;;;;;;;;;4219219;33;20051;-78
2023/07/15 14:29:33;;;;;;;2.50;2.30;;;;;;;;;;4215941;33;20039;-79
2023/07/15 14:31:59;;;;;;;5.28;2.60;;;;;;;;;;4218695;33;20078;-79
2023/07/15 14:34:26;;;;;;;2.37;2.17;;;;;;;;;;4234418;33;20072;-79
2023/07/15 14:36:52;;;;;;;2.75;2.17;;;;;;;;;;4235665;33;20066;-80
2023/07/15 14:39:18;;;;;;;2.97;2.62;;;;;;;;;;4220581;33;20481;-79
2023/07/15 14:41:45;;;;;;;2.80;2.37;;;;;;;;;;4217037;33;20061;-78
2023/07/15 14:44:11;;;;;;;11.25;2.17;;;;;;;;;;4220974;33;20063;-78
2023/07/15 14:46:38;;;;;;;8.10;2.37;;;;;;;;;;4218363;33;20063;-84
2023/07/15 14:49:04;;;;;;;4.00;2.28;;;;;;;;;;4220800;34;21024;-79
2023/07/15 14:51:30;;;;;;;3.35;2.22;;;;;;;;;;4228890;33;20074;-80
2023/07/15 14:53:57;;;;;;;10.00;2.10;;;;;;;;;;4234921;33;20490;-79
2023/07/15 14:56:23;;;;;;;3.80;2.20;;;;;;;;;;4221619;34;20058;-81
2023/07/15 14:59:01;;;;;;;3.45;2.60;;;;;;;;;;4221012;33;20526;-81
2023/07/15 15:01:28;;;;;;;4.60;1.92;;;;;;;;;;4222081;34;20076;-85
2023/07/15 15:03:54;;;;;;;4.22;2.40;;;;;;;;;;4198961;34;20043;-86
2023/07/15 15:06:20;;;;;;;2.40;2.20;;;;;;;;;;4196676;34;20044;-80
2023/07/15 15:08:46;;;;;;;4.12;2.50;;;;;;;;;;4197485;34;20078;-82
2023/07/15 15:11:12;;;;;;;5.10;1.95;;;;;;;;;;4189395;34;20873;-84
2023/07/15 15:13:38;;;;;;;5.65;2.58;;;;;;;;;;4172209;34;20052;-79
2023/07/15 15:16:11;;;;;;;8.55;2.30;;;;;;;;;;4190513;34;20043;-81
2023/07/15 15:18:38;;;;;;;5.25;3.10;;;;;;;;;;4219843;34;20161;-82
2023/07/15 15:21:04;;;;;;;3.15;2.30;;;;;;;;;;4221695;34;20138;-78
2023/07/15 15:23:30;;;;;;;4.18;1.98;;;;;;;;;;4205874;34;20073;-79
2023/07/15 15:25:57;;;;;;;3.87;2.97;;;;;;;;;;4207265;34;20040;-83
2023/07/15 15:28:23;;;;;;;2.70;2.47;;;;;;;;;;4215674;34;20055;-79
2023/07/15 15:30:49;;;;;;;3.53;2.80;;;;;;;;;;4212106;34;20043;-81
2023/07/15 15:33:15;;;;;;;3.20;2.90;;;;;;;;;;4205334;34;20536;-81
2023/07/15 15:35:41;;;;;;;3.10;2.83;;;;;;;;;;4207496;34;20035;-79
2023/07/15 15:38:08;;;;;;;6.10;2.75;;;;;;;;;;4212116;34;20642;-78
2023/07/15 15:40:34;;;;;;;2.35;2.15;;;;;;;;;;4216273;33;20115;-79
2023/07/15 15:43:00;;;;;;;3.47;2.12;;;;;;;;;;4194949;34;20842;-81
2023/07/15 15:45:26;;;;;;;8.85;2.20;;;;;;;;;;4196753;34;20140;-84
2023/07/15 15:47:53;;;;;;;2.10;2.00;;;;;;;;;;4193242;34;20052;-87
2023/07/15 15:50:19;;;;;;;2.58;2.30;;;;;;;;;;4200498;34;20035;-87
2023/07/15 15:52:48;;;;;;;3.95;3.65;;;;;;;;;;4216406;34;20176;-87
2023/07/15 15:55:16;;;;;;;3.75;2.60;;;;;;;;;;4247940;33;20510;-84
2023/07/15 15:57:43;;;;;;;2.72;2.53;;;;;;;;;;4259255;33;20092;-86
2023/07/15 16:00:10;;;;;;;2.60;2.40;;;;;;;;;;4257893;33;20074;-86
2023/07/15 16:02:37;;;;;;;3.17;2.55;;;;;;;;;;4243918;33;20073;-84
2023/07/15 16:05:04;;;;;;;3.92;2.50;;;;;;;;;;4253241;33;20080;-89
2023/07/15 16:07:30;;;;;;;2.20;2.05;;;;;;;;;;4250640;33;20050;-84
2023/07/15 16:09:56;;;;;;;9.85;2.55;;;;;;;;;;4254851;33;20046;-88
2023/07/15 16:12:22;;;;;;;7.18;2.60;;;;;;;;;;4255592;33;20057;-86
2023/07/15 16:14:48;;;;;;;2.60;2.40;;;;;;;;;;4225223;34;20093;-88
2023/07/15 16:17:15;;;;;;;7.28;2.50;;;;;;;;;;4225963;33;20069;-91
2023/07/15 16:19:41;;;;;;;3.08;2.40;;;;;;;;;;4225481;33;20077;-80
2023/07/15 16:22:07;;;;;;;3.33;2.58;;;;;;;;;;4230564;33;20472;-84
2023/07/15 16:24:40;;;;;;;2.28;2.17;;;;;;;;;;4223833;33;20094;-83
2023/07/15 16:27:06;;;;;;;3.05;2.20;;;;;;;;;;4223285;33;20055;-86
2023/07/15 16:29:32;;;;;;;2.50;2.40;;;;;;;;;;4206664;34;20158;-88
2023/07/15 16:31:58;;;;;;;6.45;2.55;;;;;;;;;;4207801;34;20063;-84
2023/07/15 16:34:25;;;;;;;6.70;2.40;;;;;;;;;;4208138;34;20406;-89
2023/07/15 16:36:51;;;;;;;4.87;2.55;;;;;;;;;;4208558;34;20047;-86
2023/07/15 16:39:17;;;;;;;2.83;2.62;;;;;;;;;;4172858;34;20382;-86
2023/07/15 16:41:44;;;;;;;2.60;2.45;;;;;;;;;;4155898;34;20090;-86
2023/07/15 16:44:11;;;;;;;6.85;2.30;;;;;;;;;;4154737;34;20045;-85
2023/07/15 16:46:37;;;;;;;2.37;2.10;;;;;;;;;;4162061;34;21522;-84